sensor_id;sensor_type;location;lat;lon;timestamp;pressure;altitude;pressure_sealevel;temperature;humidity
40908;BME280;51055;59.436;24.778;2023-06-04T00:02:26;101516.47;;;11.28;94.39
40908;BME280;51055;59.436;24.778;2023-06-04T00:04:54;101524.53;;;11.27;93.48
40908;BME280;51055;59.436;24.778;2023-06-04T00:07:21;101507.53;;;11.29;95.35
40908;BME280;51055;59.436;24.778;2023-06-04T00:09:49;101513.91;;;11.27;94.44
40908;BME280;51055;59.436;24.778;2023-06-04T00:12:16;101512.53;;;11.21;93.77
40908;BME280;51055;59.436;24.778;2023-06-04T00:14:44;101508.38;;;11.30;94.51
40908;BME280;51055;59.436;24.778;2023-06-04T00:17:12;101506.06;;;11.25;94.11
40908;BME280;51055;59.436;24.778;2023-06-04T00:19:40;101499.78;;;11.26;94.61
40908;BME280;51055;59.436;24.778;2023-06-04T00:22:08;101499.69;;;11.28;95.03
40908;BME280;51055;59.436;24.778;2023-06-04T00:24:38;101498.41;;;11.21;95.33
40908;BME280;51055;59.436;24.778;2023-06-04T00:27:08;101502.34;;;11.15;96.12
40908;BME280;51055;59.436;24.778;2023-06-04T00:29:36;101492.56;;;11.16;96.48
40908;BME280;51055;59.436;24.778;2023-06-04T00:32:04;101492.47;;;11.05;97.22
40908;BME280;51055;59.436;24.778;2023-06-04T00:34:31;101492.88;;;10.98;97.62
40908;BME280;51055;59.436;24.778;2023-06-04T00:36:59;101495.84;;;11.07;97.97
40908;BME280;51055;59.436;24.778;2023-06-04T00:39:29;101489.69;;;11.06;97.61
40908;BME280;51055;59.436;24.778;2023-06-04T00:41:57;101496.28;;;11.13;97.30
40908;BME280;51055;59.436;24.778;2023-06-04T00:44:25;101490.09;;;11.13;97.79
40908;BME280;51055;59.436;24.778;2023-06-04T00:46:54;101487.88;;;11.07;98.20
40908;BME280;51055;59.436;24.778;2023-06-04T00:49:22;101489.16;;;11.14;98.46
40908;BME280;51055;59.436;24.778;2023-06-04T00:51:50;101478.88;;;11.09;97.44
40908;BME280;51055;59.436;24.778;2023-06-04T00:54:19;101484.50;;;11.05;98.19
40908;BME280;51055;59.436;24.778;2023-06-04T00:56:47;101481.84;;;11.05;98.05
40908;BME280;51055;59.436;24.778;2023-06-04T00:59:15;101477.03;;;11.10;98.83
40908;BME280;51055;59.436;24.778;2023-06-04T01:04:24;101479.19;;;11.05;98.19
40908;BME280;51055;59.436;24.778;2023-06-04T01:06:56;101469.28;;;11.07;99.13
40908;BME280;51055;59.436;24.778;2023-06-04T01:09:27;101465.81;;;11.19;99.13
40908;BME280;51055;59.436;24.778;2023-06-04T01:11:55;101465.69;;;11.20;98.36
40908;BME280;51055;59.436;24.778;2023-06-04T01:14:25;101463.56;;;11.13;98.27
40908;BME280;51055;59.436;24.778;2023-06-04T01:16:58;101458.81;;;11.05;99.01
40908;BME280;51055;59.436;24.778;2023-06-04T01:22:17;101457.50;;;11.11;99.67
40908;BME280;51055;59.436;24.778;2023-06-04T01:24:53;101459.53;;;11.07;99.82
40908;BME280;51055;59.436;24.778;2023-06-04T01:27:23;101456.66;;;11.10;99.63
40908;BME280;51055;59.436;24.778;2023-06-04T01:29:51;101452.94;;;11.13;100.00
40908;BME280;51055;59.436;24.778;2023-06-04T01:32:19;101457.19;;;11.15;100.00
40908;BME280;51055;59.436;24.778;2023-06-04T01:34:47;101460.81;;;11.14;100.00
40908;BME280;51055;59.436;24.778;2023-06-04T01:37:15;101463.47;;;11.14;100.00
40908;BME280;51055;59.436;24.778;2023-06-04T01:39:43;101458.56;;;11.21;100.00
40908;BME280;51055;59.436;24.778;2023-06-04T01:42:11;101457.28;;;11.14;100.00
40908;BME280;51055;59.436;24.778;2023-06-04T01:44:39;101442.53;;;11.10;100.00
40908;BME280;51055;59.436;24.778;2023-06-04T01:47:07;101445.53;;;11.05;100.00
40908;BME280;51055;59.436;24.778;2023-06-04T01:49:34;101443.28;;;11.12;100.00
40908;BME280;51055;59.436;24.778;2023-06-04T01:52:02;101441.06;;;11.18;100.00
40908;BME280;51055;59.436;24.778;2023-06-04T01:54:30;101439.47;;;11.16;100.00
40908;BME280;51055;59.436;24.778;2023-06-04T01:57:00;101439.38;;;11.05;100.00
40908;BME280;51055;59.436;24.778;2023-06-04T01:59:28;101431.50;;;11.03;100.00
40908;BME280;51055;59.436;24.778;2023-06-04T02:01:55;101432.69;;;10.99;100.00
40908;BME280;51055;59.436;24.778;2023-06-04T02:04:23;101436.41;;;11.09;100.00
40908;BME280;51055;59.436;24.778;2023-06-04T02:06:50;101423.53;;;11.03;100.00
40908;BME280;51055;59.436;24.778;2023-06-04T02:09:18;101434.28;;;11.02;100.00
40908;BME280;51055;59.436;24.778;2023-06-04T02:11:46;101430.97;;;10.98;100.00
40908;BME280;51055;59.436;24.778;2023-06-04T02:14:14;101431.06;;;10.96;100.00
40908;BME280;51055;59.436;24.778;2023-06-04T02:16:41;101418.97;;;11.05;100.00
40908;BME280;51055;59.436;24.778;2023-06-04T02:19:09;101408.78;;;11.12;100.00
40908;BME280;51055;59.436;24.778;2023-06-04T02:21:40;101413.44;;;11.08;100.00
40908;BME280;51055;59.436;24.778;2023-06-04T02:24:07;101406.00;;;11.13;100.00
40908;BME280;51055;59.436;24.778;2023-06-04T02:26:35;101406.13;;;11.12;99.65
40908;BME280;51055;59.436;24.778;2023-06-04T02:29:03;101407.06;;;11.11;100.00
40908;BME280;51055;59.436;24.778;2023-06-04T02:31:31;101405.34;;;11.22;100.00
40908;BME280;51055;59.436;24.778;2023-06-04T02:33:58;101408.31;;;11.30;99.87
40908;BME280;51055;59.436;24.778;2023-06-04T02:36:28;101401.84;;;11.22;99.29
40908;BME280;51055;59.436;24.778;2023-06-04T02:38:56;101405.88;;;11.27;99.76
40908;BME280;51055;59.436;24.778;2023-06-04T02:41:23;101409.78;;;11.34;99.63
40908;BME280;51055;59.436;24.778;2023-06-04T02:43:52;101408.84;;;11.23;98.70
40908;BME280;51055;59.436;24.778;2023-06-04T02:46:20;101399.63;;;11.16;99.45
40908;BME280;51055;59.436;24.778;2023-06-04T02:48:47;101400.59;;;11.15;100.00
40908;BME280;51055;59.436;24.778;2023-06-04T02:51:15;101399.09;;;11.11;100.00
40908;BME280;51055;59.436;24.778;2023-06-04T02:53:43;101396.22;;;11.14;100.00
40908;BME280;51055;59.436;24.778;2023-06-04T02:56:11;101401.00;;;11.21;100.00
40908;BME280;51055;59.436;24.778;2023-06-04T02:58:52;101410.78;;;11.21;100.00
40908;BME280;51055;59.436;24.778;2023-06-04T03:01:24;101402.59;;;11.24;100.00
40908;BME280;51055;59.436;24.778;2023-06-04T03:03:54;101395.38;;;11.13;100.00
40908;BME280;51055;59.436;24.778;2023-06-04T03:06:23;101395.91;;;11.18;100.00
40908;BME280;51055;59.436;24.778;2023-06-04T03:08:52;101393.13;;;11.20;100.00
40908;BME280;51055;59.436;24.778;2023-06-04T03:11:20;101384.72;;;11.26;100.00
40908;BME280;51055;59.436;24.778;2023-06-04T03:13:48;101389.75;;;11.18;100.00
40908;BME280;51055;59.436;24.778;2023-06-04T03:16:16;101380.03;;;11.29;100.00
40908;BME280;51055;59.436;24.778;2023-06-04T03:18:44;101379.72;;;11.34;100.00
40908;BME280;51055;59.436;24.778;2023-06-04T03:21:12;101374.69;;;11.42;100.00
40908;BME280;51055;59.436;24.778;2023-06-04T03:23:40;101371.25;;;11.52;100.00
40908;BME280;51055;59.436;24.778;2023-06-04T03:26:08;101369.41;;;11.66;100.00
40908;BME280;51055;59.436;24.778;2023-06-04T03:28:35;101364.66;;;11.58;99.94
40908;BME280;51055;59.436;24.778;2023-06-04T03:31:03;101370.47;;;11.63;100.00
40908;BME280;51055;59.436;24.778;2023-06-04T03:33:32;101370.47;;;11.63;100.00
40908;BME280;51055;59.436;24.778;2023-06-04T03:36:00;101368.38;;;11.56;100.00
40908;BME280;51055;59.436;24.778;2023-06-04T03:38:28;101369.75;;;11.61;100.00
40908;BME280;51055;59.436;24.778;2023-06-04T03:40:55;101374.13;;;11.49;100.00
40908;BME280;51055;59.436;24.778;2023-06-04T03:43:23;101367.88;;;11.50;100.00
40908;BME280;51055;59.436;24.778;2023-06-04T03:45:51;101373.59;;;11.57;100.00
40908;BME280;51055;59.436;24.778;2023-06-04T03:48:18;101363.41;;;11.51;100.00
40908;BME280;51055;59.436;24.778;2023-06-04T03:50:46;101368.66;;;11.40;100.00
40908;BME280;51055;59.436;24.778;2023-06-04T03:53:13;101371.47;;;11.49;100.00
40908;BME280;51055;59.436;24.778;2023-06-04T03:55:41;101377.56;;;11.52;100.00
40908;BME280;51055;59.436;24.778;2023-06-04T03:58:09;101384.31;;;11.56;100.00
40908;BME280;51055;59.436;24.778;2023-06-04T04:00:38;101383.28;;;11.58;100.00
40908;BME280;51055;59.436;24.778;2023-06-04T04:03:06;101380.16;;;11.64;100.00
40908;BME280;51055;59.436;24.778;2023-06-04T04:05:37;101383.88;;;11.74;100.00
40908;BME280;51055;59.436;24.778;2023-06-04T04:08:05;101374.59;;;11.80;100.00
40908;BME280;51055;59.436;24.778;2023-06-04T04:10:33;101384.59;;;11.76;100.00
40908;BME280;51055;59.436;24.778;2023-06-04T04:13:01;101377.50;;;11.64;100.00
40908;BME280;51055;59.436;24.778;2023-06-04T04:15:28;101382.81;;;11.64;100.00
40908;BME280;51055;59.436;24.778;2023-06-04T04:17:56;101389.31;;;11.60;100.00
40908;BME280;51055;59.436;24.778;2023-06-04T04:20:24;101371.66;;;11.59;100.00
40908;BME280;51055;59.436;24.778;2023-06-04T04:22:53;101368.50;;;11.54;100.00
40908;BME280;51055;59.436;24.778;2023-06-04T04:25:21;101364.13;;;11.53;100.00
40908;BME280;51055;59.436;24.778;2023-06-04T04:27:48;101358.50;;;11.58;100.00
40908;BME280;51055;59.436;24.778;2023-06-04T04:30:16;101348.28;;;11.64;100.00
40908;BME280;51055;59.436;24.778;2023-06-04T04:32:44;101351.66;;;11.66;100.00
40908;BME280;51055;59.436;24.778;2023-06-04T04:35:16;101349.47;;;11.84;100.00
40908;BME280;51055;59.436;24.778;2023-06-04T04:37:45;101351.13;;;12.09;100.00
40908;BME280;51055;59.436;24.778;2023-06-04T04:40:13;101348.59;;;12.07;100.00
40908;BME280;51055;59.436;24.778;2023-06-04T04:42:41;101344.47;;;12.03;100.00
40908;BME280;51055;59.436;24.778;2023-06-04T04:45:09;101351.75;;;12.12;100.00
40908;BME280;51055;59.436;24.778;2023-06-04T04:47:37;101359.97;;;12.09;100.00
40908;BME280;51055;59.436;24.778;2023-06-04T04:50:05;101360.34;;;12.16;100.00
40908;BME280;51055;59.436;24.778;2023-06-04T04:52:33;101361.69;;;12.21;100.00
40908;BME280;51055;59.436;24.778;2023-06-04T04:55:01;101360.44;;;12.14;100.00
40908;BME280;51055;59.436;24.778;2023-06-04T04:57:28;101354.50;;;11.99;100.00
40908;BME280;51055;59.436;24.778;2023-06-04T04:59:56;101361.53;;;12.12;100.00
40908;BME280;51055;59.436;24.778;2023-06-04T05:02:24;101365.44;;;12.19;100.00
40908;BME280;51055;59.436;24.778;2023-06-04T05:04:53;101370.38;;;12.12;100.00
40908;BME280;51055;59.436;24.778;2023-06-04T05:07:20;101365.16;;;12.11;100.00
40908;BME280;51055;59.436;24.778;2023-06-04T05:09:50;101373.25;;;12.09;100.00
40908;BME280;51055;59.436;24.778;2023-06-04T05:12:18;101367.81;;;12.11;100.00
40908;BME280;51055;59.436;24.778;2023-06-04T05:14:46;101371.69;;;12.18;100.00
40908;BME280;51055;59.436;24.778;2023-06-04T05:17:14;101359.78;;;12.34;100.00
40908;BME280;51055;59.436;24.778;2023-06-04T05:19:44;101370.19;;;12.37;100.00
40908;BME280;51055;59.436;24.778;2023-06-04T05:22:11;101365.47;;;12.41;100.00
40908;BME280;51055;59.436;24.778;2023-06-04T05:24:40;101368.88;;;12.54;100.00
40908;BME280;51055;59.436;24.778;2023-06-04T05:27:08;101371.56;;;12.76;100.00
40908;BME280;51055;59.436;24.778;2023-06-04T05:29:36;101371.56;;;12.65;100.00
40908;BME280;51055;59.436;24.778;2023-06-04T05:32:04;101378.72;;;12.87;100.00
40908;BME280;51055;59.436;24.778;2023-06-04T05:34:32;101376.66;;;13.46;97.57
40908;BME280;51055;59.436;24.778;2023-06-04T05:37:00;101385.25;;;13.38;96.34
40908;BME280;51055;59.436;24.778;2023-06-04T05:39:28;101384.41;;;13.81;95.18
40908;BME280;51055;59.436;24.778;2023-06-04T05:41:55;101382.88;;;14.31;91.82
40908;BME280;51055;59.436;24.778;2023-06-04T05:44:23;101376.94;;;14.06;91.01
40908;BME280;51055;59.436;24.778;2023-06-04T05:46:50;101373.47;;;13.95;89.49
40908;BME280;51055;59.436;24.778;2023-06-04T05:49:18;101375.31;;;14.15;89.20
40908;BME280;51055;59.436;24.778;2023-06-04T05:51:47;101379.50;;;14.29;89.38
40908;BME280;51055;59.436;24.778;2023-06-04T05:54:14;101380.47;;;14.28;86.63
40908;BME280;51055;59.436;24.778;2023-06-04T05:56:42;101367.38;;;14.36;83.40
40908;BME280;51055;59.436;24.778;2023-06-04T05:59:09;101371.06;;;14.65;83.38
40908;BME280;51055;59.436;24.778;2023-06-04T06:01:37;101371.09;;;14.75;78.87
40908;BME280;51055;59.436;24.778;2023-06-04T06:04:05;101368.72;;;14.72;76.77
40908;BME280;51055;59.436;24.778;2023-06-04T06:06:33;101373.91;;;15.03;75.62
40908;BME280;51055;59.436;24.778;2023-06-04T06:09:00;101373.97;;;15.72;75.03
40908;BME280;51055;59.436;24.778;2023-06-04T06:11:28;101378.63;;;16.28;71.00
40908;BME280;51055;59.436;24.778;2023-06-04T06:13:56;101381.16;;;16.58;67.14
40908;BME280;51055;59.436;24.778;2023-06-04T06:16:24;101373.69;;;16.52;67.75
40908;BME280;51055;59.436;24.778;2023-06-04T06:18:52;101379.47;;;16.57;64.57
40908;BME280;51055;59.436;24.778;2023-06-04T06:21:20;101390.22;;;16.94;60.86
40908;BME280;51055;59.436;24.778;2023-06-04T06:23:48;101391.16;;;17.39;61.12
40908;BME280;51055;59.436;24.778;2023-06-04T06:26:16;101382.03;;;18.30;57.56
40908;BME280;51055;59.436;24.778;2023-06-04T06:28:47;101387.84;;;19.62;54.00
40908;BME280;51055;59.436;24.778;2023-06-04T06:31:15;101374.28;;;19.96;52.11
40908;BME280;51055;59.436;24.778;2023-06-04T06:33:42;101383.94;;;21.88;47.17
40908;BME280;51055;59.436;24.778;2023-06-04T06:36:10;101378.19;;;21.91;44.85
40908;BME280;51055;59.436;24.778;2023-06-04T06:38:40;101385.88;;;22.02;45.03
40908;BME280;51055;59.436;24.778;2023-06-04T06:41:08;101387.63;;;20.54;47.38
40908;BME280;51055;59.436;24.778;2023-06-04T06:43:36;101384.63;;;19.51;49.69
40908;BME280;51055;59.436;24.778;2023-06-04T06:46:04;101398.72;;;18.85;53.24
40908;BME280;51055;59.436;24.778;2023-06-04T06:48:32;101390.38;;;18.45;54.30
40908;BME280;51055;59.436;24.778;2023-06-04T06:50:59;101389.34;;;18.89;53.67
40908;BME280;51055;59.436;24.778;2023-06-04T06:53:27;101384.03;;;20.78;50.07
40908;BME280;51055;59.436;24.778;2023-06-04T06:55:54;101400.00;;;21.51;47.09
40908;BME280;51055;59.436;24.778;2023-06-04T06:58:22;101392.28;;;20.85;47.75
40908;BME280;51055;59.436;24.778;2023-06-04T07:00:50;101386.81;;;20.38;48.86
40908;BME280;51055;59.436;24.778;2023-06-04T07:03:18;101404.75;;;21.10;47.52
40908;BME280;51055;59.436;24.778;2023-06-04T07:05:46;101386.88;;;24.14;40.98
40908;BME280;51055;59.436;24.778;2023-06-04T07:08:14;101379.06;;;26.30;36.26
40908;BME280;51055;59.436;24.778;2023-06-04T07:10:42;101384.19;;;28.13;32.67
40908;BME280;51055;59.436;24.778;2023-06-04T07:13:09;101383.63;;;29.21;29.87
40908;BME280;51055;59.436;24.778;2023-06-04T07:15:37;101388.22;;;28.84;30.50
40908;BME280;51055;59.436;24.778;2023-06-04T07:18:04;101391.59;;;26.77;32.68
40908;BME280;51055;59.436;24.778;2023-06-04T07:20:32;101386.28;;;27.28;30.97
40908;BME280;51055;59.436;24.778;2023-06-04T07:23:00;101387.53;;;25.75;34.21
40908;BME280;51055;59.436;24.778;2023-06-04T07:25:28;101394.06;;;25.05;34.46
40908;BME280;51055;59.436;24.778;2023-06-04T07:27:55;101389.97;;;21.98;40.34
40908;BME280;51055;59.436;24.778;2023-06-04T07:30:26;101391.25;;;24.64;36.58
40908;BME280;51055;59.436;24.778;2023-06-04T07:32:54;101391.88;;;27.40;31.49
40908;BME280;51055;59.436;24.778;2023-06-04T07:35:22;101398.78;;;27.93;29.84
40908;BME280;51055;59.436;24.778;2023-06-04T07:37:50;101398.09;;;25.57;33.83
40908;BME280;51055;59.436;24.778;2023-06-04T07:40:17;101392.88;;;26.22;31.92
40908;BME280;51055;59.436;24.778;2023-06-04T07:42:46;101403.22;;;25.32;35.65
40908;BME280;51055;59.436;24.778;2023-06-04T07:45:16;101406.34;;;25.83;33.60
40908;BME280;51055;59.436;24.778;2023-06-04T07:47:44;101399.41;;;25.26;33.72
40908;BME280;51055;59.436;24.778;2023-06-04T07:50:12;101417.00;;;24.96;34.60
40908;BME280;51055;59.436;24.778;2023-06-04T07:52:40;101414.63;;;24.38;35.10
40908;BME280;51055;59.436;24.778;2023-06-04T07:55:08;101412.94;;;24.36;34.74
40908;BME280;51055;59.436;24.778;2023-06-04T07:57:35;101419.09;;;24.09;34.53
40908;BME280;51055;59.436;24.778;2023-06-04T08:00:04;101416.00;;;23.26;36.19
40908;BME280;51055;59.436;24.778;2023-06-04T08:02:33;101408.88;;;22.81;37.54
40908;BME280;51055;59.436;24.778;2023-06-04T08:05:01;101421.44;;;22.37;39.42
40908;BME280;51055;59.436;24.778;2023-06-04T08:07:30;101424.81;;;21.85;40.53
40908;BME280;51055;59.436;24.778;2023-06-04T08:09:58;101425.72;;;21.30;39.98
40908;BME280;51055;59.436;24.778;2023-06-04T08:12:26;101428.53;;;20.82;40.41
40908;BME280;51055;59.436;24.778;2023-06-04T08:14:53;101423.34;;;20.48;40.85
40908;BME280;51055;59.436;24.778;2023-06-04T08:17:24;101426.47;;;20.03;42.39
40908;BME280;51055;59.436;24.778;2023-06-04T08:19:52;101435.59;;;19.60;42.96
40908;BME280;51055;59.436;24.778;2023-06-04T08:22:19;101433.78;;;19.27;42.81
40908;BME280;51055;59.436;24.778;2023-06-04T08:24:47;101437.19;;;19.11;45.90
40908;BME280;51055;59.436;24.778;2023-06-04T08:27:15;101442.91;;;18.83;45.45
40908;BME280;51055;59.436;24.778;2023-06-04T08:29:44;101436.97;;;18.71;46.21
40908;BME280;51055;59.436;24.778;2023-06-04T08:32:12;101444.25;;;18.61;46.54
40908;BME280;51055;59.436;24.778;2023-06-04T08:34:40;101443.50;;;18.51;48.83
40908;BME280;51055;59.436;24.778;2023-06-04T08:37:08;101443.34;;;18.35;48.65
40908;BME280;51055;59.436;24.778;2023-06-04T08:39:36;101447.19;;;18.32;48.34
40908;BME280;51055;59.436;24.778;2023-06-04T08:42:05;101447.78;;;18.08;47.65
40908;BME280;51055;59.436;24.778;2023-06-04T08:44:34;101453.91;;;18.01;48.79
40908;BME280;51055;59.436;24.778;2023-06-04T08:47:04;101449.28;;;17.93;47.84
40908;BME280;51055;59.436;24.778;2023-06-04T08:49:34;101459.47;;;17.72;47.77
40908;BME280;51055;59.436;24.778;2023-06-04T08:52:03;101464.03;;;17.62;47.74
40908;BME280;51055;59.436;24.778;2023-06-04T08:54:32;101465.75;;;17.63;47.83
40908;BME280;51055;59.436;24.778;2023-06-04T08:57:00;101475.31;;;17.65;49.48
40908;BME280;51055;59.436;24.778;2023-06-04T08:59:29;101468.50;;;17.71;50.18
40908;BME280;51055;59.436;24.778;2023-06-04T09:01:56;101465.44;;;17.66;50.06
40908;BME280;51055;59.436;24.778;2023-06-04T09:04:27;101468.72;;;17.60;49.92
40908;BME280;51055;59.436;24.778;2023-06-04T09:07:00;101478.16;;;17.54;50.07
40908;BME280;51055;59.436;24.778;2023-06-04T09:09:28;101473.56;;;17.47;49.10
40908;BME280;51055;59.436;24.778;2023-06-04T09:11:57;101478.66;;;17.40;50.01
40908;BME280;51055;59.436;24.778;2023-06-04T09:14:25;101488.88;;;17.27;50.60
40908;BME280;51055;59.436;24.778;2023-06-04T09:16:55;101474.38;;;17.10;49.73
40908;BME280;51055;59.436;24.778;2023-06-04T09:19:26;101479.47;;;17.04;50.56
40908;BME280;51055;59.436;24.778;2023-06-04T09:21:58;101484.09;;;17.11;52.14
40908;BME280;51055;59.436;24.778;2023-06-04T09:24:40;101483.53;;;17.17;52.67
40908;BME280;51055;59.436;24.778;2023-06-04T09:27:10;101485.09;;;17.10;50.91
40908;BME280;51055;59.436;24.778;2023-06-04T09:29:40;101487.94;;;16.99;51.01
40908;BME280;51055;59.436;24.778;2023-06-04T09:32:08;101487.59;;;16.75;49.91
40908;BME280;51055;59.436;24.778;2023-06-04T09:34:36;101492.66;;;16.69;50.11
40908;BME280;51055;59.436;24.778;2023-06-04T09:37:14;101486.00;;;16.53;49.69
40908;BME280;51055;59.436;24.778;2023-06-04T09:39:43;101497.84;;;16.51;48.94
40908;BME280;51055;59.436;24.778;2023-06-04T09:42:10;101481.78;;;16.51;49.47
40908;BME280;51055;59.436;24.778;2023-06-04T09:44:45;101493.38;;;16.61;51.09
40908;BME280;51055;59.436;24.778;2023-06-04T09:47:16;101499.00;;;16.58;50.43
40908;BME280;51055;59.436;24.778;2023-06-04T09:49:44;101498.56;;;16.62;50.93
40908;BME280;51055;59.436;24.778;2023-06-04T09:52:13;101499.69;;;16.60;52.24
40908;BME280;51055;59.436;24.778;2023-06-04T09:54:41;101506.47;;;16.64;51.44
40908;BME280;51055;59.436;24.778;2023-06-04T09:57:16;101496.31;;;16.67;51.86
40908;BME280;51055;59.436;24.778;2023-06-04T09:59:49;101500.97;;;16.65;51.62
40908;BME280;51055;59.436;24.778;2023-06-04T10:02:19;101512.50;;;16.47;50.98
40908;BME280;51055;59.436;24.778;2023-06-04T10:04:54;101504.47;;;16.37;50.08
40908;BME280;51055;59.436;24.778;2023-06-04T10:07:25;101503.59;;;16.37;50.38
40908;BME280;51055;59.436;24.778;2023-06-04T10:09:54;101503.19;;;16.32;50.94
40908;BME280;51055;59.436;24.778;2023-06-04T10:12:29;101509.53;;;16.31;51.00
40908;BME280;51055;59.436;24.778;2023-06-04T10:15:02;101510.66;;;16.28;52.09
40908;BME280;51055;59.436;24.778;2023-06-04T10:17:32;101519.25;;;16.32;51.50
40908;BME280;51055;59.436;24.778;2023-06-04T10:20:01;101517.84;;;16.28;51.63
40908;BME280;51055;59.436;24.778;2023-06-04T10:22:31;101513.47;;;16.27;51.98
40908;BME280;51055;59.436;24.778;2023-06-04T10:24:59;101518.53;;;16.30;52.64
40908;BME280;51055;59.436;24.778;2023-06-04T10:27:27;101511.34;;;16.11;51.85
40908;BME280;51055;59.436;24.778;2023-06-04T10:29:55;101519.66;;;16.17;52.46
40908;BME280;51055;59.436;24.778;2023-06-04T10:32:27;101527.56;;;16.19;52.19
40908;BME280;51055;59.436;24.778;2023-06-04T10:34:56;101527.13;;;16.14;52.46
40908;BME280;51055;59.436;24.778;2023-06-04T10:37:26;101529.09;;;16.22;53.40
40908;BME280;51055;59.436;24.778;2023-06-04T10:39:55;101523.31;;;16.16;53.68
40908;BME280;51055;59.436;24.778;2023-06-04T10:42:24;101533.88;;;16.18;53.40
40908;BME280;51055;59.436;24.778;2023-06-04T10:44:53;101521.47;;;16.17;52.55
40908;BME280;51055;59.436;24.778;2023-06-04T10:47:25;101522.34;;;16.17;52.54
40908;BME280;51055;59.436;24.778;2023-06-04T10:49:54;101519.66;;;16.17;52.71
40908;BME280;51055;59.436;24.778;2023-06-04T10:52:22;101519.09;;;16.14;52.59
40908;BME280;51055;59.436;24.778;2023-06-04T10:54:50;101522.22;;;16.19;52.10
40908;BME280;51055;59.436;24.778;2023-06-04T10:57:21;101523.06;;;16.20;51.94
40908;BME280;51055;59.436;24.778;2023-06-04T10:59:59;101525.00;;;16.17;52.16
40908;BME280;51055;59.436;24.778;2023-06-04T11:02:27;101521.06;;;16.22;52.17
40908;BME280;51055;59.436;24.778;2023-06-04T11:05:02;101520.91;;;16.23;51.60
40908;BME280;51055;59.436;24.778;2023-06-04T11:07:43;101530.78;;;16.13;51.58
40908;BME280;51055;59.436;24.778;2023-06-04T11:10:12;101535.88;;;16.16;51.83
40908;BME280;51055;59.436;24.778;2023-06-04T11:12:48;101543.47;;;16.21;51.71
40908;BME280;51055;59.436;24.778;2023-06-04T11:15:18;101543.91;;;16.16;51.36
40908;BME280;51055;59.436;24.778;2023-06-04T11:17:53;101544.47;;;16.20;51.04
40908;BME280;51055;59.436;24.778;2023-06-04T11:20:22;101541.06;;;16.08;51.71
40908;BME280;51055;59.436;24.778;2023-06-04T11:22:57;101553.03;;;16.13;51.24
40908;BME280;51055;59.436;24.778;2023-06-04T11:25:27;101552.63;;;16.18;50.68
40908;BME280;51055;59.436;24.778;2023-06-04T11:27:57;101552.50;;;16.20;51.25
40908;BME280;51055;59.436;24.778;2023-06-04T11:30:25;101563.47;;;16.16;51.36
40908;BME280;51055;59.436;24.778;2023-06-04T11:33:03;101555.31;;;16.18;52.85
40908;BME280;51055;59.436;24.778;2023-06-04T11:35:40;101565.44;;;16.14;52.32
40908;BME280;51055;59.436;24.778;2023-06-04T11:38:08;101567.69;;;16.09;52.25
40908;BME280;51055;59.436;24.778;2023-06-04T11:40:37;101567.84;;;16.17;52.43
40908;BME280;51055;59.436;24.778;2023-06-04T11:43:05;101568.50;;;16.10;52.39
40908;BME280;51055;59.436;24.778;2023-06-04T11:45:33;101574.72;;;16.10;52.97
40908;BME280;51055;59.436;24.778;2023-06-04T11:48:01;101571.63;;;16.15;53.48
40908;BME280;51055;59.436;24.778;2023-06-04T11:50:31;101572.50;;;16.15;54.57
40908;BME280;51055;59.436;24.778;2023-06-04T11:52:59;101576.31;;;16.23;54.80
40908;BME280;51055;59.436;24.778;2023-06-04T11:55:27;101583.63;;;16.21;53.85
40908;BME280;51055;59.436;24.778;2023-06-04T11:57:55;101583.50;;;16.22;53.93
40908;BME280;51055;59.436;24.778;2023-06-04T12:00:23;101591.81;;;16.19;53.98
40908;BME280;51055;59.436;24.778;2023-06-04T12:02:55;101591.38;;;16.24;54.33
40908;BME280;51055;59.436;24.778;2023-06-04T12:05:29;101590.22;;;16.16;54.14
40908;BME280;51055;59.436;24.778;2023-06-04T12:08:08;101588.53;;;16.06;53.99
40908;BME280;51055;59.436;24.778;2023-06-04T12:10:41;101586.69;;;16.06;54.98
40908;BME280;51055;59.436;24.778;2023-06-04T12:13:10;101591.59;;;16.01;53.98
40908;BME280;51055;59.436;24.778;2023-06-04T12:15:38;101593.59;;;16.09;55.76
40908;BME280;51055;59.436;24.778;2023-06-04T12:18:05;101591.03;;;16.07;55.59
40908;BME280;51055;59.436;24.778;2023-06-04T12:20:38;101595.44;;;16.08;55.00
40908;BME280;51055;59.436;24.778;2023-06-04T12:23:06;101595.28;;;16.10;55.59
40908;BME280;51055;59.436;24.778;2023-06-04T12:25:35;101602.34;;;16.11;54.42
40908;BME280;51055;59.436;24.778;2023-06-04T12:28:05;101600.31;;;16.03;53.74
40908;BME280;51055;59.436;24.778;2023-06-04T12:30:40;101598.66;;;16.02;53.93
40908;BME280;51055;59.436;24.778;2023-06-04T12:33:10;101604.41;;;15.98;54.54
40908;BME280;51055;59.436;24.778;2023-06-04T12:35:38;101611.00;;;15.94;53.67
40908;BME280;51055;59.436;24.778;2023-06-04T12:38:05;101600.28;;;15.94;53.83
40908;BME280;51055;59.436;24.778;2023-06-04T12:40:36;101599.31;;;15.95;55.00
40908;BME280;51055;59.436;24.778;2023-06-04T12:43:05;101612.97;;;15.92;54.37
40908;BME280;51055;59.436;24.778;2023-06-04T12:45:33;101604.94;;;15.92;54.54
40908;BME280;51055;59.436;24.778;2023-06-04T12:48:01;101610.03;;;15.95;56.50
40908;BME280;51055;59.436;24.778;2023-06-04T12:50:29;101604.81;;;15.93;55.35
40908;BME280;51055;59.436;24.778;2023-06-04T12:52:56;101610.03;;;15.95;56.50